sensor_id;sensor_type;location;lat;lon;timestamp;temperature;humidity
21895;DHT22;11112;51.270;7.224;2022-12-16T00:01:11;0.20;88.80
21895;DHT22;11112;51.270;7.224;2022-12-16T00:03:46;0.20;88.40
21895;DHT22;11112;51.270;7.224;2022-12-16T00:06:15;0.10;88.20
21895;DHT22;11112;51.270;7.224;2022-12-16T00:08:43;0.20;89.10
21895;DHT22;11112;51.270;7.224;2022-12-16T00:11:10;0.20;88.20
21895;DHT22;11112;51.270;7.224;2022-12-16T00:13:40;0.20;87.90
21895;DHT22;11112;51.270;7.224;2022-12-16T00:16:09;0.10;88.30
21895;DHT22;11112;51.270;7.224;2022-12-16T00:18:41;0.10;88.20
21895;DHT22;11112;51.270;7.224;2022-12-16T00:21:10;0.10;88.20
21895;DHT22;11112;51.270;7.224;2022-12-16T00:23:37;0.10;87.90
21895;DHT22;11112;51.270;7.224;2022-12-16T00:26:06;0.10;87.90
21895;DHT22;11112;51.270;7.224;2022-12-16T00:28:33;0.10;88.20
21895;DHT22;11112;51.270;7.224;2022-12-16T00:31:03;0.10;88.10
21895;DHT22;11112;51.270;7.224;2022-12-16T00:33:31;0.10;88.10
21895;DHT22;11112;51.270;7.224;2022-12-16T00:35:58;0.20;87.90
21895;DHT22;11112;51.270;7.224;2022-12-16T00:38:27;0.10;87.80
21895;DHT22;11112;51.270;7.224;2022-12-16T00:40:56;0.10;87.60
21895;DHT22;11112;51.270;7.224;2022-12-16T00:43:23;0.10;87.30
21895;DHT22;11112;51.270;7.224;2022-12-16T00:45:52;0.10;87.20
21895;DHT22;11112;51.270;7.224;2022-12-16T00:48:23;0.10;87.60
21895;DHT22;11112;51.270;7.224;2022-12-16T00:50:53;0.10;87.20
21895;DHT22;11112;51.270;7.224;2022-12-16T00:53:23;0.10;87.20
21895;DHT22;11112;51.270;7.224;2022-12-16T00:55:51;0.10;87.10
21895;DHT22;11112;51.270;7.224;2022-12-16T00:58:20;0.10;87.20
21895;DHT22;11112;51.270;7.224;2022-12-16T01:00:49;0.10;86.70
21895;DHT22;11112;51.270;7.224;2022-12-16T01:03:17;0.10;87.40
21895;DHT22;11112;51.270;7.224;2022-12-16T01:05:48;0.10;87.80
21895;DHT22;11112;51.270;7.224;2022-12-16T01:08:17;0.10;87.20
21895;DHT22;11112;51.270;7.224;2022-12-16T01:10:50;0.10;87.50
21895;DHT22;11112;51.270;7.224;2022-12-16T01:13:18;0.10;87.00
21895;DHT22;11112;51.270;7.224;2022-12-16T01:15:46;0.10;87.40
21895;DHT22;11112;51.270;7.224;2022-12-16T01:18:17;0.00;86.60
21895;DHT22;11112;51.270;7.224;2022-12-16T01:20:49;-0.10;86.50
21895;DHT22;11112;51.270;7.224;2022-12-16T01:23:18;-0.10;86.70
21895;DHT22;11112;51.270;7.224;2022-12-16T01:25:49;-0.10;87.10
21895;DHT22;11112;51.270;7.224;2022-12-16T01:28:19;0.00;87.30
21895;DHT22;11112;51.270;7.224;2022-12-16T01:30:47;0.00;87.10
21895;DHT22;11112;51.270;7.224;2022-12-16T01:33:16;0.00;86.50
21895;DHT22;11112;51.270;7.224;2022-12-16T01:35:43;0.00;86.90
21895;DHT22;11112;51.270;7.224;2022-12-16T01:38:11;-0.10;86.70
21895;DHT22;11112;51.270;7.224;2022-12-16T01:40:41;0.00;86.30
21895;DHT22;11112;51.270;7.224;2022-12-16T01:43:10;-0.10;86.10
21895;DHT22;11112;51.270;7.224;2022-12-16T01:45:40;-0.10;87.00
21895;DHT22;11112;51.270;7.224;2022-12-16T01:48:19;-0.10;86.50
21895;DHT22;11112;51.270;7.224;2022-12-16T01:50:49;-0.10;86.90
21895;DHT22;11112;51.270;7.224;2022-12-16T01:53:23;-0.10;86.60
21895;DHT22;11112;51.270;7.224;2022-12-16T01:55:52;-0.10;86.70
21895;DHT22;11112;51.270;7.224;2022-12-16T01:58:26;-0.10;86.30
21895;DHT22;11112;51.270;7.224;2022-12-16T02:00:57;-0.10;86.50
21895;DHT22;11112;51.270;7.224;2022-12-16T02:03:25;-0.10;86.50
21895;DHT22;11112;51.270;7.224;2022-12-16T02:05:55;-0.10;86.20
21895;DHT22;11112;51.270;7.224;2022-12-16T02:08:25;-0.10;86.40
21895;DHT22;11112;51.270;7.224;2022-12-16T02:11:13;-0.20;86.40
21895;DHT22;11112;51.270;7.224;2022-12-16T02:13:53;-0.20;86.30
21895;DHT22;11112;51.270;7.224;2022-12-16T02:16:34;-0.20;86.30
21895;DHT22;11112;51.270;7.224;2022-12-16T02:19:16;-0.20;86.30
21895;DHT22;11112;51.270;7.224;2022-12-16T02:22:17;-0.20;86.10
21895;DHT22;11112;51.270;7.224;2022-12-16T02:28:11;-0.20;85.90
21895;DHT22;11112;51.270;7.224;2022-12-16T02:30:59;-0.20;86.20
21895;DHT22;11112;51.270;7.224;2022-12-16T02:33:55;-0.20;86.20
21895;DHT22;11112;51.270;7.224;2022-12-16T02:36:41;-0.20;86.30
21895;DHT22;11112;51.270;7.224;2022-12-16T02:39:23;-0.20;86.00
21895;DHT22;11112;51.270;7.224;2022-12-16T02:41:58;-0.20;85.50
21895;DHT22;11112;51.270;7.224;2022-12-16T02:44:34;-0.20;85.90
21895;DHT22;11112;51.270;7.224;2022-12-16T02:47:08;-0.30;85.80
21895;DHT22;11112;51.270;7.224;2022-12-16T02:49:49;-0.30;86.30
21895;DHT22;11112;51.270;7.224;2022-12-16T02:52:21;-0.30;85.30
21895;DHT22;11112;51.270;7.224;2022-12-16T02:54:58;-0.30;85.80
21895;DHT22;11112;51.270;7.224;2022-12-16T02:57:48;-0.30;85.90
21895;DHT22;11112;51.270;7.224;2022-12-16T03:00:37;-0.30;86.20
21895;DHT22;11112;51.270;7.224;2022-12-16T03:03:14;-0.30;85.90
21895;DHT22;11112;51.270;7.224;2022-12-16T03:05:46;-0.30;85.70
21895;DHT22;11112;51.270;7.224;2022-12-16T03:08:21;-0.30;85.20
21895;DHT22;11112;51.270;7.224;2022-12-16T03:10:56;-0.30;85.40
21895;DHT22;11112;51.270;7.224;2022-12-16T03:13:33;-0.30;85.20
21895;DHT22;11112;51.270;7.224;2022-12-16T03:16:05;-0.30;85.60
21895;DHT22;11112;51.270;7.224;2022-12-16T03:18:46;-0.30;85.20
21895;DHT22;11112;51.270;7.224;2022-12-16T03:21:17;-0.30;85.60
21895;DHT22;11112;51.270;7.224;2022-12-16T03:23:49;-0.40;84.40
21895;DHT22;11112;51.270;7.224;2022-12-16T03:26:23;-0.40;85.40
21895;DHT22;11112;51.270;7.224;2022-12-16T03:28:58;-0.40;85.50
21895;DHT22;11112;51.270;7.224;2022-12-16T03:31:32;-0.40;85.40
21895;DHT22;11112;51.270;7.224;2022-12-16T03:34:18;-0.30;85.20
21895;DHT22;11112;51.270;7.224;2022-12-16T03:36:58;-0.40;84.80
21895;DHT22;11112;51.270;7.224;2022-12-16T03:39:33;-0.50;84.90
21895;DHT22;11112;51.270;7.224;2022-12-16T03:42:03;-0.50;85.30
21895;DHT22;11112;51.270;7.224;2022-12-16T03:44:34;-0.40;85.40
21895;DHT22;11112;51.270;7.224;2022-12-16T03:47:02;-0.50;86.00
21895;DHT22;11112;51.270;7.224;2022-12-16T03:49:32;-0.50;84.90
21895;DHT22;11112;51.270;7.224;2022-12-16T03:52:04;-0.50;85.00
21895;DHT22;11112;51.270;7.224;2022-12-16T03:54:32;-0.50;84.80
21895;DHT22;11112;51.270;7.224;2022-12-16T03:57:01;-0.50;84.80
21895;DHT22;11112;51.270;7.224;2022-12-16T03:59:31;-0.50;85.00
21895;DHT22;11112;51.270;7.224;2022-12-16T04:01:58;-0.50;85.50
21895;DHT22;11112;51.270;7.224;2022-12-16T04:04:25;-0.50;85.90
21895;DHT22;11112;51.270;7.224;2022-12-16T04:06:54;-0.50;85.00
21895;DHT22;11112;51.270;7.224;2022-12-16T04:09:35;-0.50;85.20
21895;DHT22;11112;51.270;7.224;2022-12-16T04:12:03;-0.60;84.00
21895;DHT22;11112;51.270;7.224;2022-12-16T04:14:51;-0.60;85.20
21895;DHT22;11112;51.270;7.224;2022-12-16T04:17:35;-0.60;85.30
21895;DHT22;11112;51.270;7.224;2022-12-16T04:20:26;-0.60;84.90
21895;DHT22;11112;51.270;7.224;2022-12-16T04:23:14;-0.70;84.70
21895;DHT22;11112;51.270;7.224;2022-12-16T04:25:59;-0.60;85.70
21895;DHT22;11112;51.270;7.224;2022-12-16T04:28:29;-0.60;85.10
21895;DHT22;11112;51.270;7.224;2022-12-16T04:30:57;-0.60;85.30
21895;DHT22;11112;51.270;7.224;2022-12-16T04:33:25;-0.60;85.20
21895;DHT22;11112;51.270;7.224;2022-12-16T04:36:14;-0.50;85.00
21895;DHT22;11112;51.270;7.224;2022-12-16T04:39:00;-0.60;84.70
21895;DHT22;11112;51.270;7.224;2022-12-16T04:41:45;-0.60;84.80
21895;DHT22;11112;51.270;7.224;2022-12-16T04:44:30;-0.60;84.60
21895;DHT22;11112;51.270;7.224;2022-12-16T04:47:16;-0.60;84.90
21895;DHT22;11112;51.270;7.224;2022-12-16T04:50:00;-0.60;84.80
21895;DHT22;11112;51.270;7.224;2022-12-16T04:52:45;-0.60;84.60
21895;DHT22;11112;51.270;7.224;2022-12-16T04:55:35;-0.60;84.50
21895;DHT22;11112;51.270;7.224;2022-12-16T04:58:24;-0.60;84.80
21895;DHT22;11112;51.270;7.224;2022-12-16T05:01:08;-0.60;84.60
21895;DHT22;11112;51.270;7.224;2022-12-16T05:04:06;-0.60;84.30
21895;DHT22;11112;51.270;7.224;2022-12-16T05:06:51;-0.70;84.10
21895;DHT22;11112;51.270;7.224;2022-12-16T05:09:38;-0.70;84.60
21895;DHT22;11112;51.270;7.224;2022-12-16T05:12:26;-0.70;84.80
21895;DHT22;11112;51.270;7.224;2022-12-16T05:15:11;-0.70;85.00
21895;DHT22;11112;51.270;7.224;2022-12-16T05:17:56;-0.70;85.00
21895;DHT22;11112;51.270;7.224;2022-12-16T05:20:43;-0.70;84.70
21895;DHT22;11112;51.270;7.224;2022-12-16T05:23:27;-0.80;85.10
21895;DHT22;11112;51.270;7.224;2022-12-16T05:26:13;-0.80;84.90
21895;DHT22;11112;51.270;7.224;2022-12-16T05:29:00;-0.70;84.90
21895;DHT22;11112;51.270;7.224;2022-12-16T05:31:44;-0.70;84.80
21895;DHT22;11112;51.270;7.224;2022-12-16T05:34:32;-0.70;84.80
21895;DHT22;11112;51.270;7.224;2022-12-16T05:37:16;-0.70;85.10
21895;DHT22;11112;51.270;7.224;2022-12-16T05:40:01;-0.70;85.00
21895;DHT22;11112;51.270;7.224;2022-12-16T05:42:46;-0.70;84.60
21895;DHT22;11112;51.270;7.224;2022-12-16T05:45:33;-0.70;85.40
21895;DHT22;11112;51.270;7.224;2022-12-16T05:48:22;-0.80;84.80
21895;DHT22;11112;51.270;7.224;2022-12-16T05:51:07;-0.80;85.10
21895;DHT22;11112;51.270;7.224;2022-12-16T05:53:53;-0.80;85.10
21895;DHT22;11112;51.270;7.224;2022-12-16T05:56:39;-0.70;85.60
21895;DHT22;11112;51.270;7.224;2022-12-16T05:59:23;-0.70;86.20
21895;DHT22;11112;51.270;7.224;2022-12-16T06:02:09;-0.70;85.50
21895;DHT22;11112;51.270;7.224;2022-12-16T06:04:54;-0.70;85.20
21895;DHT22;11112;51.270;7.224;2022-12-16T06:07:40;-0.70;85.00
21895;DHT22;11112;51.270;7.224;2022-12-16T06:10:25;-0.70;85.20
21895;DHT22;11112;51.270;7.224;2022-12-16T06:13:10;-0.80;84.90
21895;DHT22;11112;51.270;7.224;2022-12-16T06:15:55;-0.80;85.30
21895;DHT22;11112;51.270;7.224;2022-12-16T06:18:43;-0.70;85.10
21895;DHT22;11112;51.270;7.224;2022-12-16T06:21:28;-0.80;84.90
21895;DHT22;11112;51.270;7.224;2022-12-16T06:24:13;-0.80;84.90
21895;DHT22;11112;51.270;7.224;2022-12-16T06:26:58;-0.80;85.00
21895;DHT22;11112;51.270;7.224;2022-12-16T06:29:46;-0.80;84.20
21895;DHT22;11112;51.270;7.224;2022-12-16T06:32:31;-0.90;85.10
21895;DHT22;11112;51.270;7.224;2022-12-16T06:35:17;-0.90;85.60
21895;DHT22;11112;51.270;7.224;2022-12-16T06:38:03;-0.90;85.50
21895;DHT22;11112;51.270;7.224;2022-12-16T06:40:49;-0.90;85.60
21895;DHT22;11112;51.270;7.224;2022-12-16T06:43:35;-0.90;85.50
21895;DHT22;11112;51.270;7.224;2022-12-16T06:46:20;-0.80;84.90
21895;DHT22;11112;51.270;7.224;2022-12-16T06:49:13;-0.90;85.00
21895;DHT22;11112;51.270;7.224;2022-12-16T06:51:59;-0.80;85.10
21895;DHT22;11112;51.270;7.224;2022-12-16T06:54:43;-0.80;85.10
21895;DHT22;11112;51.270;7.224;2022-12-16T06:57:28;-0.90;84.30
21895;DHT22;11112;51.270;7.224;2022-12-16T07:00:14;-1.00;84.10
21895;DHT22;11112;51.270;7.224;2022-12-16T07:03:00;-1.00;85.00
21895;DHT22;11112;51.270;7.224;2022-12-16T07:05:44;-0.90;85.20
21895;DHT22;11112;51.270;7.224;2022-12-16T07:08:31;-0.90;84.80
21895;DHT22;11112;51.270;7.224;2022-12-16T07:11:16;-0.90;84.50
21895;DHT22;11112;51.270;7.224;2022-12-16T07:14:01;-1.00;84.90
21895;DHT22;11112;51.270;7.224;2022-12-16T07:16:47;-0.90;85.00
21895;DHT22;11112;51.270;7.224;2022-12-16T07:19:32;-0.90;84.80
21895;DHT22;11112;51.270;7.224;2022-12-16T07:22:17;-1.00;85.70
21895;DHT22;11112;51.270;7.224;2022-12-16T07:25:05;-0.90;86.20
21895;DHT22;11112;51.270;7.224;2022-12-16T07:27:52;-0.90;85.80
21895;DHT22;11112;51.270;7.224;2022-12-16T07:30:52;-1.00;84.40
21895;DHT22;11112;51.270;7.224;2022-12-16T07:33:43;-1.20;85.30
21895;DHT22;11112;51.270;7.224;2022-12-16T07:36:28;-1.20;85.20
21895;DHT22;11112;51.270;7.224;2022-12-16T07:39:13;-1.00;85.60
21895;DHT22;11112;51.270;7.224;2022-12-16T07:41:59;-1.00;85.50
21895;DHT22;11112;51.270;7.224;2022-12-16T07:44:46;-1.10;84.20
21895;DHT22;11112;51.270;7.224;2022-12-16T07:47:32;-1.10;84.60
21895;DHT22;11112;51.270;7.224;2022-12-16T07:50:28;-1.20;84.40
21895;DHT22;11112;51.270;7.224;2022-12-16T07:53:13;-1.10;84.90
21895;DHT22;11112;51.270;7.224;2022-12-16T07:55:58;-1.00;86.40
21895;DHT22;11112;51.270;7.224;2022-12-16T07:58:44;-1.00;85.40
21895;DHT22;11112;51.270;7.224;2022-12-16T08:01:29;-1.10;84.50
21895;DHT22;11112;51.270;7.224;2022-12-16T08:04:14;-1.00;85.20
21895;DHT22;11112;51.270;7.224;2022-12-16T08:06:59;-1.00;85.10
21895;DHT22;11112;51.270;7.224;2022-12-16T08:09:44;-1.00;84.90
21895;DHT22;11112;51.270;7.224;2022-12-16T08:12:29;-1.00;85.00
21895;DHT22;11112;51.270;7.224;2022-12-16T08:15:16;-0.90;85.10
21895;DHT22;11112;51.270;7.224;2022-12-16T08:18:00;-0.90;85.30
21895;DHT22;11112;51.270;7.224;2022-12-16T08:20:47;-0.90;85.40
21895;DHT22;11112;51.270;7.224;2022-12-16T08:23:33;-0.90;85.20
21895;DHT22;11112;51.270;7.224;2022-12-16T08:26:18;-0.90;85.30
21895;DHT22;11112;51.270;7.224;2022-12-16T08:29:03;-0.90;85.40
21895;DHT22;11112;51.270;7.224;2022-12-16T08:31:49;-0.90;85.50
21895;DHT22;11112;51.270;7.224;2022-12-16T08:34:36;-0.90;85.20
21895;DHT22;11112;51.270;7.224;2022-12-16T08:37:20;-0.80;86.10
21895;DHT22;11112;51.270;7.224;2022-12-16T08:40:06;-0.80;85.80
21895;DHT22;11112;51.270;7.224;2022-12-16T08:42:51;-0.80;86.10
21895;DHT22;11112;51.270;7.224;2022-12-16T08:45:36;-0.80;86.00
21895;DHT22;11112;51.270;7.224;2022-12-16T08:48:31;-0.80;86.00
21895;DHT22;11112;51.270;7.224;2022-12-16T08:51:16;-0.80;86.30
21895;DHT22;11112;51.270;7.224;2022-12-16T08:54:02;-0.90;86.50
21895;DHT22;11112;51.270;7.224;2022-12-16T08:56:48;-0.90;86.90
21895;DHT22;11112;51.270;7.224;2022-12-16T08:59:32;-0.80;86.90
21895;DHT22;11112;51.270;7.224;2022-12-16T09:02:17;-0.80;87.00
21895;DHT22;11112;51.270;7.224;2022-12-16T09:05:04;-0.80;87.00
21895;DHT22;11112;51.270;7.224;2022-12-16T09:07:49;-0.80;87.70
21895;DHT22;11112;51.270;7.224;2022-12-16T09:10:34;-0.70;87.70
21895;DHT22;11112;51.270;7.224;2022-12-16T09:13:19;-0.70;87.50
21895;DHT22;11112;51.270;7.224;2022-12-16T09:16:04;-0.70;88.10
21895;DHT22;11112;51.270;7.224;2022-12-16T09:18:49;-0.60;88.40
21895;DHT22;11112;51.270;7.224;2022-12-16T09:21:34;-0.70;88.20
21895;DHT22;11112;51.270;7.224;2022-12-16T09:24:19;-0.70;88.60
21895;DHT22;11112;51.270;7.224;2022-12-16T09:27:05;-0.60;88.90
21895;DHT22;11112;51.270;7.224;2022-12-16T09:29:50;-0.60;88.80
21895;DHT22;11112;51.270;7.224;2022-12-16T09:32:34;-0.60;89.20
21895;DHT22;11112;51.270;7.224;2022-12-16T09:35:25;-0.50;89.50
21895;DHT22;11112;51.270;7.224;2022-12-16T09:38:12;-0.50;89.60
21895;DHT22;11112;51.270;7.224;2022-12-16T09:40:58;-0.50;90.00
21895;DHT22;11112;51.270;7.224;2022-12-16T09:43:53;-0.40;90.10
21895;DHT22;11112;51.270;7.224;2022-12-16T09:46:51;-0.30;90.20
21895;DHT22;11112;51.270;7.224;2022-12-16T09:49:45;-0.30;90.50
21895;DHT22;11112;51.270;7.224;2022-12-16T09:52:34;-0.30;90.50
21895;DHT22;11112;51.270;7.224;2022-12-16T09:55:27;-0.20;90.60
21895;DHT22;11112;51.270;7.224;2022-12-16T09:58:14;-0.20;90.90
21895;DHT22;11112;51.270;7.224;2022-12-16T10:01:04;-0.10;91.10
21895;DHT22;11112;51.270;7.224;2022-12-16T10:03:49;-0.10;91.50
21895;DHT22;11112;51.270;7.224;2022-12-16T10:06:39;-0.10;91.50
21895;DHT22;11112;51.270;7.224;2022-12-16T10:09:29;0.00;91.80
21895;DHT22;11112;51.270;7.224;2022-12-16T10:12:29;0.10;91.90
21895;DHT22;11112;51.270;7.224;2022-12-16T10:15:30;0.10;92.00
21895;DHT22;11112;51.270;7.224;2022-12-16T10:18:27;0.10;92.10
21895;DHT22;11112;51.270;7.224;2022-12-16T10:21:24;0.20;92.10
21895;DHT22;11112;51.270;7.224;2022-12-16T10:24:18;0.20;92.30
21895;DHT22;11112;51.270;7.224;2022-12-16T10:27:13;0.30;92.50
21895;DHT22;11112;51.270;7.224;2022-12-16T10:30:00;0.30;92.70
21895;DHT22;11112;51.270;7.224;2022-12-16T10:32:46;0.40;92.80
21895;DHT22;11112;51.270;7.224;2022-12-16T10:35:35;0.40;93.10
21895;DHT22;11112;51.270;7.224;2022-12-16T10:38:34;0.50;93.00
21895;DHT22;11112;51.270;7.224;2022-12-16T10:41:21;0.50;92.90
21895;DHT22;11112;51.270;7.224;2022-12-16T10:44:15;0.60;93.10
21895;DHT22;11112;51.270;7.224;2022-12-16T10:47:08;0.60;93.10
21895;DHT22;11112;51.270;7.224;2022-12-16T10:49:54;0.60;93.30
21895;DHT22;11112;51.270;7.224;2022-12-16T10:52:55;0.70;93.50
21895;DHT22;11112;51.270;7.224;2022-12-16T10:55:58;0.70;93.50
21895;DHT22;11112;51.270;7.224;2022-12-16T10:58:53;0.80;93.60
21895;DHT22;11112;51.270;7.224;2022-12-16T11:01:39;0.80;93.80
21895;DHT22;11112;51.270;7.224;2022-12-16T11:04:31;0.90;93.80
21895;DHT22;11112;51.270;7.224;2022-12-16T11:07:27;0.90;93.70
21895;DHT22;11112;51.270;7.224;2022-12-16T11:10:31;0.90;93.90
21895;DHT22;11112;51.270;7.224;2022-12-16T11:13:22;1.00;93.90
21895;DHT22;11112;51.270;7.224;2022-12-16T11:16:14;1.00;94.00
21895;DHT22;11112;51.270;7.224;2022-12-16T11:18:59;1.00;94.20
21895;DHT22;11112;51.270;7.224;2022-12-16T11:21:46;1.00;94.20
21895;DHT22;11112;51.270;7.224;2022-12-16T11:24:31;1.00;94.30
21895;DHT22;11112;51.270;7.224;2022-12-16T11:27:22;1.10;94.50
21895;DHT22;11112;51.270;7.224;2022-12-16T11:30:19;1.10;94.60
21895;DHT22;11112;51.270;7.224;2022-12-16T11:33:11;1.10;94.90
21895;DHT22;11112;51.270;7.224;2022-12-16T11:36:13;1.20;95.40
21895;DHT22;11112;51.270;7.224;2022-12-16T11:39:05;1.20;95.60
21895;DHT22;11112;51.270;7.224;2022-12-16T11:41:53;1.20;95.70
21895;DHT22;11112;51.270;7.224;2022-12-16T11:44:40;1.20;95.70
21895;DHT22;11112;51.270;7.224;2022-12-16T11:47:37;1.20;95.60
21895;DHT22;11112;51.270;7.224;2022-12-16T11:50:25;1.20;95.80
21895;DHT22;11112;51.270;7.224;2022-12-16T11:53:30;1.20;95.70
21895;DHT22;11112;51.270;7.224;2022-12-16T11:56:22;1.20;95.90
21895;DHT22;11112;51.270;7.224;2022-12-16T11:59:10;1.30;96.00
21895;DHT22;11112;51.270;7.224;2022-12-16T12:02:00;1.30;96.00
21895;DHT22;11112;51.270;7.224;2022-12-16T12:05:01;1.30;96.20
21895;DHT22;11112;51.270;7.224;2022-12-16T12:07:50;1.30;96.10
21895;DHT22;11112;51.270;7.224;2022-12-16T12:11:00;1.30;96.20
21895;DHT22;11112;51.270;7.224;2022-12-16T12:14:04;1.30;96.30
21895;DHT22;11112;51.270;7.224;2022-12-16T12:17:12;1.40;96.30
21895;DHT22;11112;51.270;7.224;2022-12-16T12:20:15;1.40;96.20
21895;DHT22;11112;51.270;7.224;2022-12-16T12:23:15;1.40;96.10
21895;DHT22;11112;51.270;7.224;2022-12-16T12:26:10;1.40;96.30
21895;DHT22;11112;51.270;7.224;2022-12-16T12:29:02;1.50;96.50
21895;DHT22;11112;51.270;7.224;2022-12-16T12:31:56;1.50;96.50
21895;DHT22;11112;51.270;7.224;2022-12-16T12:34:46;1.50;96.70
21895;DHT22;11112;51.270;7.224;2022-12-16T12:37:40;1.50;96.70
21895;DHT22;11112;51.270;7.224;2022-12-16T12:40:40;1.50;96.70
21895;DHT22;11112;51.270;7.224;2022-12-16T12:43:40;1.60;96.70
21895;DHT22;11112;51.270;7.224;2022-12-16T12:46:35;1.60;96.50
21895;DHT22;11112;51.270;7.224;2022-12-16T12:49:30;1.60;96.40
21895;DHT22;11112;51.270;7.224;2022-12-16T12:52:28;1.70;96.50
21895;DHT22;11112;51.270;7.224;2022-12-16T12:55:34;1.70;96.40
21895;DHT22;11112;51.270;7.224;2022-12-16T12:58:23;1.70;96.80
21895;DHT22;11112;51.270;7.224;2022-12-16T13:01:11;1.70;96.50
21895;DHT22;11112;51.270;7.224;2022-12-16T13:04:06;1.70;96.40
21895;DHT22;11112;51.270;7.224;2022-12-16T13:06:58;1.80;96.40
21895;DHT22;11112;51.270;7.224;2022-12-16T13:09:44;1.80;96.40
21895;DHT22;11112;51.270;7.224;2022-12-16T13:12:30;1.80;96.40
21895;DHT22;11112;51.270;7.224;2022-12-16T13:15:32;1.80;96.50
21895;DHT22;11112;51.270;7.224;2022-12-16T13:18:27;1.80;96.50
21895;DHT22;11112;51.270;7.224;2022-12-16T13:21:45;1.80;96.40
21895;DHT22;11112;51.270;7.224;2022-12-16T13:24:39;1.80;96.70
21895;DHT22;11112;51.270;7.224;2022-12-16T13:27:28;1.90;96.70
21895;DHT22;11112;51.270;7.224;2022-12-16T13:30:22;1.90;97.10
21895;DHT22;11112;51.270;7.224;2022-12-16T13:33:05;1.90;96.80
21895;DHT22;11112;51.270;7.224;2022-12-16T13:36:01;1.90;96.80
21895;DHT22;11112;51.270;7.224;2022-12-16T13:38:50;1.90;96.80
21895;DHT22;11112;51.270;7.224;2022-12-16T13:41:57;1.90;96.70
21895;DHT22;11112;51.270;7.224;2022-12-16T13:44:56;2.00;96.60
21895;DHT22;11112;51.270;7.224;2022-12-16T13:48:00;1.90;96.70
21895;DHT22;11112;51.270;7.224;2022-12-16T13:50:48;1.90;96.70
21895;DHT22;11112;51.270;7.224;2022-12-16T13:53:40;1.90;96.60
21895;DHT22;11112;51.270;7.224;2022-12-16T13:56:32;2.00;96.50
21895;DHT22;11112;51.270;7.224;2022-12-16T13:59:24;2.00;96.40
21895;DHT22;11112;51.270;7.224;2022-12-16T14:02:18;2.00;96.40
21895;DHT22;11112;51.270;7.224;2022-12-16T14:05:17;2.00;96.40
21895;DHT22;11112;51.270;7.224;2022-12-16T14:08:05;2.00;96.40
21895;DHT22;11112;51.270;7.224;2022-12-16T14:11:00;2.00;96.40
21895;DHT22;11112;51.270;7.224;2022-12-16T14:13:53;2.00;96.30
21895;DHT22;11112;51.270;7.224;2022-12-16T14:16:44;2.00;96.30
21895;DHT22;11112;51.270;7.224;2022-12-16T14:19:48;2.00;96.30
21895;DHT22;11112;51.270;7.224;2022-12-16T14:22:48;2.00;96.30
21895;DHT22;11112;51.270;7.224;2022-12-16T14:25:35;2.00;96.20
21895;DHT22;11112;51.270;7.224;2022-12-16T14:28:26;2.00;96.20
21895;DHT22;11112;51.270;7.224;2022-12-16T14:31:20;2.10;96.20
21895;DHT22;11112;51.270;7.224;2022-12-16T14:34:19;2.10;96.20
21895;DHT22;11112;51.270;7.224;2022-12-16T14:37:11;2.00;96.10
21895;DHT22;11112;51.270;7.224;2022-12-16T14:39:58;2.00;96.10
21895;DHT22;11112;51.270;7.224;2022-12-16T14:42:43;2.10;96.00
21895;DHT22;11112;51.270;7.224;2022-12-16T14:45:30;2.10;96.00
21895;DHT22;11112;51.270;7.224;2022-12-16T14:48:27;2.10;96.00
21895;DHT22;11112;51.270;7.224;2022-12-16T14:51:26;2.10;96.00
21895;DHT22;11112;51.270;7.224;2022-12-16T14:54:21;2.00;96.00
21895;DHT22;11112;51.270;7.224;2022-12-16T14:57:16;2.00;96.00
21895;DHT22;11112;51.270;7.224;2022-12-16T15:00:10;2.00;96.00
21895;DHT22;11112;51.270;7.224;2022-12-16T15:03:02;2.00;96.00
21895;DHT22;11112;51.270;7.224;2022-12-16T15:05:56;2.00;96.10
21895;DHT22;11112;51.270;7.224;2022-12-16T15:08:47;2.00;96.10
21895;DHT22;11112;51.270;7.224;2022-12-16T15:11:33;2.00;96.10
21895;DHT22;11112;51.270;7.224;2022-12-16T15:14:23;2.00;96.10
21895;DHT22;11112;51.270;7.224;2022-12-16T15:17:18;2.00;96.10
21895;DHT22;11112;51.270;7.224;2022-12-16T15:20:15;2.00;96.10
21895;DHT22;11112;51.270;7.224;2022-12-16T15:23:02;2.00;96.20
21895;DHT22;11112;51.270;7.224;2022-12-16T15:25:49;2.00;96.20
21895;DHT22;11112;51.270;7.224;2022-12-16T15:28:43;2.00;96.10
21895;DHT22;11112;51.270;7.224;2022-12-16T15:31:31;1.90;96.10
21895;DHT22;11112;51.270;7.224;2022-12-16T15:34:23;1.90;96.20
21895;DHT22;11112;51.270;7.224;2022-12-16T15:37:23;1.90;96.10
21895;DHT22;11112;51.270;7.224;2022-12-16T15:40:30;1.90;96.10
21895;DHT22;11112;51.270;7.224;2022-12-16T15:43:24;1.90;96.30
21895;DHT22;11112;51.270;7.224;2022-12-16T15:46:19;1.90;96.40
21895;DHT22;11112;51.270;7.224;2022-12-16T15:49:15;1.90;96.30
21895;DHT22;11112;51.270;7.224;2022-12-16T15:52:02;1.90;96.30
21895;DHT22;11112;51.270;7.224;2022-12-16T15:54:50;1.90;96.30
21895;DHT22;11112;51.270;7.224;2022-12-16T15:57:55;1.90;96.30
21895;DHT22;11112;51.270;7.224;2022-12-16T16:00:40;1.80;96.30
21895;DHT22;11112;51.270;7.224;2022-12-16T16:03:44;1.80;96.20
21895;DHT22;11112;51.270;7.224;2022-12-16T16:06:32;1.80;96.30
21895;DHT22;11112;51.270;7.224;2022-12-16T16:09:21;1.80;96.40
21895;DHT22;11112;51.270;7.224;2022-12-16T16:12:08;1.80;96.30
21895;DHT22;11112;51.270;7.224;2022-12-16T16:14:54;1.80;96.30
21895;DHT22;11112;51.270;7.224;2022-12-16T16:17:43;1.80;96.40
21895;DHT22;11112;51.270;7.224;2022-12-16T16:20:28;1.80;96.30
21895;DHT22;11112;51.270;7.224;2022-12-16T16:23:12;1.80;96.20
21895;DHT22;11112;51.270;7.224;2022-12-16T16:25:59;1.70;96.20
21895;DHT22;11112;51.270;7.224;2022-12-16T16:28:47;1.70;96.10
21895;DHT22;11112;51.270;7.224;2022-12-16T16:31:33;1.70;96.00
21895;DHT22;11112;51.270;7.224;2022-12-16T16:34:19;1.70;96.00
21895;DHT22;11112;51.270;7.224;2022-12-16T16:37:14;1.70;95.90
21895;DHT22;11112;51.270;7.224;2022-12-16T16:40:20;1.70;95.90
21895;DHT22;11112;51.270;7.224;2022-12-16T16:43:10;1.70;95.90
21895;DHT22;11112;51.270;7.224;2022-12-16T16:45:55;1.70;95.90
21895;DHT22;11112;51.270;7.224;2022-12-16T16:48:53;1.60;95.90
21895;DHT22;11112;51.270;7.224;2022-12-16T16:51:38;1.60;95.80
21895;DHT22;11112;51.270;7.224;2022-12-16T16:54:23;1.60;95.80
21895;DHT22;11112;51.270;7.224;2022-12-16T16:57:09;1.60;95.80
21895;DHT22;11112;51.270;7.224;2022-12-16T16:59:54;1.60;95.70
21895;DHT22;11112;51.270;7.224;2022-12-16T17:02:39;1.60;95.80
21895;DHT22;11112;51.270;7.224;2022-12-16T17:05:26;1.60;95.80
21895;DHT22;11112;51.270;7.224;2022-12-16T17:08:12;1.60;95.70
21895;DHT22;11112;51.270;7.224;2022-12-16T17:10:57;1.60;95.70
21895;DHT22;11112;51.270;7.224;2022-12-16T17:13:42;1.50;95.70
21895;DHT22;11112;51.270;7.224;2022-12-16T17:16:27;1.60;95.70
21895;DHT22;11112;51.270;7.224;2022-12-16T17:19:12;1.50;95.60
21895;DHT22;11112;51.270;7.224;2022-12-16T17:21:58;1.50;95.60
21895;DHT22;11112;51.270;7.224;2022-12-16T17:24:43;1.50;95.60
21895;DHT22;11112;51.270;7.224;2022-12-16T17:27:29;1.40;95.50
21895;DHT22;11112;51.270;7.224;2022-12-16T17:30:16;1.50;95.70
21895;DHT22;11112;51.270;7.224;2022-12-16T17:33:03;1.40;95.60
21895;DHT22;11112;51.270;7.224;2022-12-16T17:35:48;1.40;95.60